Time;durP1;ratioP1;P1;durP2;ratioP2;P2;SDS_P1;SDS_P2;PMS_P1;PMS_P2;Temp;Humidity;BMP_temperature;BMP_pressure;BME280_temperature;BME280_humidity;BME280_pressure;Samples;Min_cycle;Max_cycle;Signal;HPM_P1;HPM_P2
2023/02/03 00:00:27;;;;;;;1.00;0.70;;;;;;;2.13;87.52;100281.91;6317025;28;20040;-73
2023/02/03 00:03:28;;;;;;;2.72;1.38;;;;;;;2.18;88.00;100285.22;6306544;28;20040;-72
2023/02/03 00:06:30;;;;;;;1.40;1.20;;;;;;;2.21;87.71;100287.72;6318421;28;20097;-71
2023/02/03 00:09:32;;;;;;;2.05;1.38;;;;;;;2.32;87.32;100287.47;6304162;28;20050;-78
2023/02/03 00:12:33;;;;;;;2.63;1.50;;;;;;;2.43;86.68;100290.66;6305237;28;20044;-71
2023/02/03 00:15:34;;;;;;;4.70;2.15;;;;;;;2.41;86.87;100303.56;6291878;28;20435;-77
2023/02/03 00:18:35;;;;;;;3.10;1.63;;;;;;;2.44;86.46;100304.38;6302981;28;20036;-71
2023/02/03 00:21:36;;;;;;;1.50;1.40;;;;;;;2.48;86.39;100306.84;6310027;28;20127;-78
2023/02/03 00:24:37;;;;;;;1.95;1.55;;;;;;;2.48;87.06;100318.88;6295995;28;20032;-71
2023/02/03 00:27:38;;;;;;;1.63;1.52;;;;;;;2.45;86.99;100324.94;6304199;28;20056;-71
2023/02/03 00:30:39;;;;;;;4.65;1.95;;;;;;;2.44;87.51;100333.56;6322037;28;20042;-78
2023/02/03 00:33:39;;;;;;;2.97;1.80;;;;;;;2.39;88.45;100343.13;6302053;28;20028;-77
2023/02/03 00:36:40;;;;;;;6.05;2.33;;;;;;;2.37;89.17;100342.31;6303049;28;20407;-78
2023/02/03 00:39:41;;;;;;;6.03;2.20;;;;;;;2.34;89.75;100348.34;6311175;28;20048;-72
2023/02/03 00:42:42;;;;;;;3.67;2.25;;;;;;;2.32;89.48;100354.44;6315975;28;20036;-78
2023/02/03 00:45:43;;;;;;;2.05;1.58;;;;;;;2.20;89.86;100348.69;6303750;28;20032;-71
2023/02/03 00:48:46;;;;;;;1.33;1.10;;;;;;;2.29;89.72;100352.78;6318355;28;20046;-72
2023/02/03 00:51:46;;;;;;;3.05;1.88;;;;;;;2.27;89.24;100353.69;6318584;28;20110;-72
2023/02/03 00:54:50;;;;;;;2.03;1.48;;;;;;;2.27;90.00;100354.53;6328061;28;20056;-78
2023/02/03 00:57:51;;;;;;;1.25;1.05;;;;;;;2.31;90.31;100363.06;6325058;28;20407;-78
2023/02/03 01:00:54;;;;;;;2.97;1.75;;;;;;;2.31;89.56;100371.63;6295507;28;20044;-78
2023/02/03 01:03:59;;;;;;;3.13;1.52;;;;;;;2.33;89.51;100367.28;6300622;28;20044;-71
2023/02/03 01:06:59;;;;;;;7.38;1.40;;;;;;;2.32;90.15;100370.72;6302992;28;20032;-78
2023/02/03 01:10:01;;;;;;;3.58;1.90;;;;;;;2.24;89.90;100379.50;6286342;28;20047;-71
2023/02/03 01:13:02;;;;;;;3.13;1.50;;;;;;;2.13;90.70;100387.47;6321869;28;20097;-78
2023/02/03 01:16:06;;;;;;;12.82;2.10;;;;;;;2.05;91.28;100395.31;6328168;28;20047;-78
2023/02/03 01:19:08;;;;;;;2.83;1.58;;;;;;;2.14;90.88;100386.56;6328882;28;20046;-71
2023/02/03 01:22:08;;;;;;;4.60;2.03;;;;;;;2.14;90.79;100382.28;6347167;28;20551;-78
2023/02/03 01:25:09;;;;;;;2.05;1.55;;;;;;;2.15;90.80;100401.13;6346794;28;20056;-72
2023/02/03 01:28:10;;;;;;;2.63;1.33;;;;;;;2.13;90.83;100397.75;6328858;28;20097;-73
2023/02/03 01:31:14;;;;;;;5.25;1.83;;;;;;;1.95;91.18;100398.97;6346972;28;20097;-78
2023/02/03 01:34:15;;;;;;;3.40;1.55;;;;;;;2.05;91.32;100390.19;6347218;28;20123;-78
2023/02/03 01:37:16;;;;;;;3.97;1.40;;;;;;;2.20;90.76;100396.72;6346711;28;20051;-72
2023/02/03 01:40:18;;;;;;;7.65;1.48;;;;;;;2.27;91.31;100397.47;6312013;28;20048;-71
2023/02/03 01:43:38;;;;;;;4.22;2.47;;;;;;;2.25;91.42;100392.34;6321320;28;20055;-72
2023/02/03 01:46:50;;;;;;;2.65;1.85;;;;;;;2.30;90.48;100390.50;6325372;28;20085;-78
2023/02/03 01:50:01;;;;;;;3.63;1.90;;;;;;;2.26;90.61;100395.75;6308928;28;20035;-78
2023/02/03 01:53:10;;;;;;;2.95;1.48;;;;;;;2.15;91.51;100389.13;6325077;28;20272;-71
2023/02/03 01:56:11;;;;;;;3.33;1.55;;;;;;;2.09;91.95;100389.25;6349543;28;20040;-71
2023/02/03 01:59:15;;;;;;;1.48;1.20;;;;;;;2.07;92.43;100388.41;6351751;28;20036;-78
2023/02/03 02:02:16;;;;;;;2.58;1.63;;;;;;;2.12;92.74;100393.47;6333611;28;20426;-78
2023/02/03 02:06:00;;;;;;;1.52;1.30;;;;;;;2.06;92.96;100388.44;6333615;28;20050;-72
2023/02/03 02:09:04;;;;;;;1.02;0.93;;;;;;;2.13;92.75;100405.47;6311498;28;20108;-71
2023/02/03 02:12:04;;;;;;;1.08;1.00;;;;;;;2.11;92.99;100400.34;6351913;28;20069;-78
2023/02/03 02:15:06;;;;;;;1.58;1.25;;;;;;;2.03;93.13;100386.78;6324768;28;20602;-78
2023/02/03 02:18:10;;;;;;;3.00;1.52;;;;;;;2.04;93.58;100398.78;6307870;28;20064;-72
2023/02/03 02:21:19;;;;;;;2.00;1.40;;;;;;;1.99;93.66;100403.19;6325292;28;20048;-72
2023/02/03 02:24:38;;;;;;;3.70;1.90;;;;;;;1.92;93.35;100394.72;6325029;28;20535;-72
2023/02/03 02:27:39;;;;;;;2.92;1.70;;;;;;;1.93;93.53;100399.00;6325578;28;20067;-71
2023/02/03 02:30:58;;;;;;;1.70;1.23;;;;;;;1.86;93.78;100406.88;6307449;28;20066;-77
2023/02/03 02:34:05;;;;;;;2.08;1.35;;;;;;;1.76;94.07;100399.31;6345305;28;20047;-71
2023/02/03 02:37:23;;;;;;;4.40;1.63;;;;;;;1.67;93.89;100414.06;6350117;28;20039;-71
2023/02/03 02:40:28;;;;;;;5.30;1.55;;;;;;;1.63;94.02;100420.16;6333175;28;20096;-78
2023/02/03 02:43:48;;;;;;;5.28;1.85;;;;;;;1.63;94.07;100417.59;6350068;28;20077;-78
2023/02/03 02:46:54;;;;;;;2.15;1.33;;;;;;;1.62;93.99;100429.59;6349626;28;20040;-72
2023/02/03 02:50:03;;;;;;;0.93;0.88;;;;;;;1.60;94.05;100429.63;6332489;28;20071;-72
2023/02/03 02:53:09;;;;;;;4.28;2.05;;;;;;;1.57;93.82;100428.84;6349140;28;20554;-72
2023/02/03 02:56:13;;;;;;;6.03;1.50;;;;;;;1.55;93.35;100430.59;6330289;28;20588;-78
2023/02/03 02:59:14;;;;;;;1.40;1.10;;;;;;;1.55;92.99;100440.91;6330878;28;20444;-78
2023/02/03 03:02:16;;;;;;;1.60;1.40;;;;;;;1.57;93.34;100445.13;6330752;28;20048;-78
2023/02/03 03:05:17;;;;;;;1.33;1.23;;;;;;;1.54;93.05;100446.91;6330646;28;20126;-78
2023/02/03 03:08:26;;;;;;;0.77;0.77;;;;;;;1.55;92.88;100446.88;6348523;28;20127;-78
2023/02/03 03:11:32;;;;;;;0.80;0.80;;;;;;;1.48;92.56;100447.84;6348535;28;20069;-71
2023/02/03 03:14:40;;;;;;;2.72;1.20;;;;;;;1.42;90.92;100453.09;6329965;28;20487;-71
2023/02/03 03:17:47;;;;;;;2.42;1.42;;;;;;;1.43;89.58;100459.94;6330434;28;20048;-78
2023/02/03 03:20:52;;;;;;;2.30;0.93;;;;;;;1.49;88.48;100464.16;6330377;28;20039;-78
2023/02/03 03:23:56;;;;;;;2.72;1.50;;;;;;;1.55;86.98;100458.91;6348536;28;20036;-78
2023/02/03 03:27:03;;;;;;;2.30;1.38;;;;;;;1.55;86.51;100462.31;6330167;28;20040;-78
2023/02/03 03:30:10;;;;;;;5.47;1.98;;;;;;;1.49;86.93;100462.41;6330336;28;20044;-78
2023/02/03 03:33:10;;;;;;;1.50;1.25;;;;;;;1.47;87.28;100461.59;6347633;28;20444;-78
2023/02/03 03:36:20;;;;;;;4.38;1.27;;;;;;;1.39;88.31;100458.31;6328917;28;20039;-77
2023/02/03 03:39:32;;;;;;;1.73;1.08;;;;;;;1.35;89.49;100472.09;6347306;28;20092;-71
2023/02/03 03:42:36;;;;;;;2.45;1.35;;;;;;;1.31;90.25;100468.72;6312133;28;20044;-71
2023/02/03 03:45:51;;;;;;;3.17;1.10;;;;;;;1.25;89.81;100465.41;6304967;28;20100;-78
2023/02/03 03:49:01;;;;;;;1.58;1.23;;;;;;;1.24;89.55;100463.72;6322592;28;20114;-78
2023/02/03 03:52:06;;;;;;;0.80;0.80;;;;;;;1.20;88.55;100466.31;6322535;28;20051;-71
2023/02/03 03:55:13;;;;;;;0.98;0.88;;;;;;;1.14;87.42;100473.28;6262685;28;1197011;-71
2023/02/03 03:58:23;;;;;;;2.50;1.50;;;;;;;1.02;87.67;100468.34;6323423;28;20058;-78
2023/02/03 04:01:24;;;;;;;0.75;0.75;;;;;;;1.09;87.62;100468.22;6330482;28;20035;-71
2023/02/03 04:04:29;;;;;;;0.87;0.87;;;;;;;0.98;87.52;100473.50;6330606;28;20044;-78
2023/02/03 04:07:38;;;;;;;1.83;1.00;;;;;;;0.90;88.03;100464.22;6329409;28;20067;-78
2023/02/03 04:10:41;;;;;;;2.03;1.10;;;;;;;0.80;86.41;100459.22;6332225;28;20038;-78
2023/02/03 04:13:41;;;;;;;1.80;1.08;;;;;;;0.85;86.39;100460.88;6323647;28;20040;-72
2023/02/03 04:16:42;;;;;;;1.70;1.58;;;;;;;0.86;86.17;100467.69;6329958;28;20055;-78
2023/02/03 04:19:43;;;;;;;1.75;1.58;;;;;;;0.75;84.59;100458.44;6348035;28;20483;-72
2023/02/03 04:22:46;;;;;;;1.30;1.17;;;;;;;0.70;84.47;100464.50;6330114;28;20467;-72
2023/02/03 04:25:47;;;;;;;1.97;1.60;;;;;;;0.67;83.92;100472.25;6348081;28;20040;-78
2023/02/03 04:28:48;;;;;;;3.20;1.52;;;;;;;0.61;83.00;100468.03;6347745;28;20402;-73
2023/02/03 04:31:49;;;;;;;2.53;1.55;;;;;;;0.60;83.19;100467.19;6347957;28;20048;-78
2023/02/03 04:34:50;;;;;;;3.85;2.20;;;;;;;0.58;82.76;100457.81;6329891;28;20039;-78
2023/02/03 04:37:50;;;;;;;5.88;2.78;;;;;;;0.58;82.10;100462.97;6329822;28;20044;-78
2023/02/03 04:40:51;;;;;;;6.20;3.38;;;;;;;0.60;81.47;100448.38;6321106;28;20472;-72
2023/02/03 04:43:52;;;;;;;8.57;2.33;;;;;;;0.61;81.24;100450.06;6347630;28;20411;-76
2023/02/03 04:46:52;;;;;;;7.07;3.08;;;;;;;0.56;81.26;100446.72;6347708;28;20038;-72
2023/02/03 04:49:53;;;;;;;3.38;2.03;;;;;;;0.53;81.25;100449.31;6346138;28;20043;-78
2023/02/03 04:52:54;;;;;;;8.50;2.22;;;;;;;0.44;80.14;100447.72;6329206;28;20177;-72
2023/02/03 04:55:55;;;;;;;5.28;3.10;;;;;;;0.38;81.42;100458.91;6346514;28;20064;-71
2023/02/03 04:58:56;;;;;;;2.35;1.65;;;;;;;0.27;80.56;100457.34;6346714;28;20051;-71
2023/02/03 05:01:56;;;;;;;13.80;5.47;;;;;;;-0.02;81.53;100466.25;6340620;27;20471;-78
2023/02/03 05:04:57;;;;;;;22.15;4.57;;;;;;;0.10;82.51;100470.38;6346211;28;20403;-72
2023/02/03 05:07:58;;;;;;;5.57;2.33;;;;;;;-0.08;82.71;100480.00;6324852;28;20040;-78
2023/02/03 05:10:59;;;;;;;2.78;1.33;;;;;;;-0.07;83.07;100481.69;6341316;28;20051;-72
2023/02/03 05:14:02;;;;;;;2.42;1.05;;;;;;;0.01;82.22;100489.31;6322340;28;20068;-77
2023/02/03 05:17:02;;;;;;;1.17;0.95;;;;;;;-0.02;81.74;100489.34;6321364;28;20055;-78
2023/02/03 05:20:04;;;;;;;2.63;1.58;;;;;;;0.11;81.41;100496.03;6320733;28;20044;-78
2023/02/03 05:23:07;;;;;;;3.00;1.52;;;;;;;0.28;81.29;100497.56;6324033;28;20050;-72
2023/02/03 05:26:09;;;;;;;2.35;1.30;;;;;;;0.15;81.52;100497.69;6346094;28;20070;-72
2023/02/03 05:29:10;;;;;;;9.73;0.45;;;;;;;0.04;82.38;100496.09;6307516;28;20399;-71
2023/02/03 05:32:11;;;;;;;2.57;1.80;;;;;;;0.14;82.76;100502.84;6302137;28;20039;-71
2023/02/03 05:35:15;;;;;;;2.70;1.83;;;;;;;0.10;83.13;100496.03;6303398;28;20036;-71
2023/02/03 05:38:16;;;;;;;1.83;0.95;;;;;;;0.10;83.01;100509.72;6302777;28;20051;-71
2023/02/03 05:44:36;;;;;;;2.38;1.92;;;;;;;-0.20;85.89;100508.34;6334898;28;20042;-73
2023/02/03 05:47:37;;;;;;;3.70;2.22;;;;;;;-0.17;87.19;100513.41;6344650;28;20048;-72
2023/02/03 05:50:38;;;;;;;2.80;1.05;;;;;;;-0.30;88.45;100524.66;6327828;28;20039;-78
2023/02/03 05:53:38;;;;;;;1.45;1.08;;;;;;;-0.29;89.33;100528.91;6340020;28;20052;-73
2023/02/03 05:56:44;;;;;;;0.85;0.85;;;;;;;-0.17;89.36;100528.81;6302355;28;20048;-71
2023/02/03 05:59:45;;;;;;;2.13;1.40;;;;;;;-0.21;89.08;100533.13;6302615;28;20506;-72
2023/02/03 06:02:53;;;;;;;2.25;1.75;;;;;;;-0.39;91.90;100535.00;6302424;28;20044;-78
2023/02/03 06:05:54;;;;;;;4.28;1.67;;;;;;;-0.34;92.83;100538.38;6302304;28;20040;-78
2023/02/03 06:08:55;;;;;;;3.30;1.77;;;;;;;-0.28;93.39;100541.72;6302209;28;20032;-71
2023/02/03 06:11:56;;;;;;;3.83;2.55;;;;;;;-0.23;93.41;100537.44;6302346;28;20040;-78
2023/02/03 06:14:57;;;;;;;2.78;1.63;;;;;;;-0.35;94.61;100549.50;6302275;28;20063;-78
2023/02/03 06:17:58;;;;;;;1.40;0.82;;;;;;;-0.22;94.19;100544.25;6302299;28;20555;-78
2023/02/03 06:20:58;;;;;;;1.58;1.48;;;;;;;-0.15;93.67;100547.59;6320238;28;20047;-77
2023/02/03 06:23:59;;;;;;;2.42;1.42;;;;;;;-0.12;92.98;100557.00;6320151;28;20044;-78
2023/02/03 06:27:00;;;;;;;3.83;1.02;;;;;;;0.04;91.94;100557.69;6320055;28;20463;-78
2023/02/03 06:30:01;;;;;;;1.02;1.00;;;;;;;0.10;90.59;100550.78;6320993;28;20135;-78
2023/02/03 06:33:02;;;;;;;2.38;1.55;;;;;;;0.07;90.47;100547.41;6306403;28;20448;-78
2023/02/03 06:36:02;;;;;;;1.30;1.20;;;;;;;0.09;90.24;100543.13;6316544;28;20045;-78
2023/02/03 06:39:04;;;;;;;2.67;1.80;;;;;;;0.08;90.94;100541.41;6286510;28;20044;-71
2023/02/03 06:42:05;;;;;;;3.50;1.80;;;;;;;0.09;90.43;100537.97;6280348;28;20048;-71
2023/02/03 06:45:07;;;;;;;5.88;2.97;;;;;;;0.32;89.91;100546.28;6299613;28;20098;-78
2023/02/03 06:48:07;;;;;;;6.07;3.58;;;;;;;0.45;88.81;100541.84;6281457;28;20450;-72
2023/02/03 06:51:08;;;;;;;2.03;1.58;;;;;;;0.66;87.46;100556.16;6281249;28;20158;-71
2023/02/03 06:54:10;;;;;;;2.45;1.67;;;;;;;0.62;86.54;100558.75;6308905;28;20052;-78
2023/02/03 06:57:11;;;;;;;7.10;2.63;;;;;;;0.70;86.16;100568.09;6306466;28;20052;-78
2023/02/03 07:00:13;;;;;;;5.97;2.78;;;;;;;0.84;85.66;100565.34;6324311;28;20044;-78
2023/02/03 07:03:14;;;;;;;5.47;2.33;;;;;;;0.87;84.23;100565.31;6306442;28;20044;-78
2023/02/03 07:06:15;;;;;;;4.82;1.95;;;;;;;1.00;84.02;100566.00;6305898;28;20089;-78
2023/02/03 07:09:16;;;;;;;3.13;2.00;;;;;;;0.88;82.77;100563.59;6306215;28;20393;-78
2023/02/03 07:12:17;;;;;;;5.20;2.45;;;;;;;0.87;83.87;100569.63;6306041;28;20036;-77
2023/02/03 07:15:18;;;;;;;2.08;1.60;;;;;;;0.60;83.27;100571.66;6306026;28;20039;-77
2023/02/03 07:18:25;;;;;;;2.13;1.65;;;;;;;0.88;82.82;100573.88;6306155;28;20044;-77
2023/02/03 07:21:26;;;;;;;2.22;1.38;;;;;;;1.19;81.17;100566.59;6305562;28;20036;-77
2023/02/03 07:24:29;;;;;;;2.25;1.27;;;;;;;1.43;78.61;100560.25;6305788;28;20051;-77
2023/02/03 07:27:29;;;;;;;1.90;1.65;;;;;;;1.50;75.98;100553.28;6323587;28;20119;-72
2023/02/03 07:30:30;;;;;;;4.18;1.88;;;;;;;1.95;75.85;100551.66;6323311;28;20046;-72
2023/02/03 07:33:33;;;;;;;2.28;1.80;;;;;;;2.24;74.37;100550.28;6305151;28;20036;-77
2023/02/03 07:36:34;;;;;;;7.47;3.17;;;;;;;2.44;74.96;100549.91;6305531;28;20114;-77
2023/02/03 07:39:36;;;;;;;6.43;2.60;;;;;;;2.57;75.03;100535.91;6305527;28;20048;-77
2023/02/03 07:42:43;;;;;;;3.92;2.20;;;;;;;2.71;72.05;100525.31;6322089;28;20557;-71
2023/02/03 07:45:45;;;;;;;2.03;1.65;;;;;;;2.82;72.86;100525.94;6323268;28;20052;-77
2023/02/03 07:48:50;;;;;;;3.15;2.22;;;;;;;2.70;70.54;100540.78;6321935;28;20118;-77
2023/02/03 07:51:51;;;;;;;4.25;2.40;;;;;;;2.85;70.92;100537.06;6304693;28;20043;-77
2023/02/03 07:54:52;;;;;;;9.00;2.35;;;;;;;2.92;71.24;100531.72;6322581;28;20471;-77
2023/02/03 07:57:54;;;;;;;9.60;2.92;;;;;;;2.90;70.32;100535.22;6322520;28;20499;-72
2023/02/03 08:00:55;;;;;;;18.15;7.78;;;;;;;2.90;70.21;100530.06;6322522;28;20117;-77
2023/02/03 08:04:00;;;;;;;13.68;6.38;;;;;;;2.98;69.66;100530.75;6304521;28;20080;-71
2023/02/03 08:07:01;;;;;;;8.18;2.42;;;;;;;3.15;68.46;100525.19;6322492;28;20090;-71
2023/02/03 08:10:03;;;;;;;5.07;2.78;;;;;;;3.28;67.71;100521.47;6322666;28;20044;-75
2023/02/03 08:13:04;;;;;;;4.57;2.80;;;;;;;3.40;66.91;100516.03;6304505;28;20044;-71
2023/02/03 08:16:05;;;;;;;5.47;2.97;;;;;;;3.55;65.75;100527.69;6304371;28;20130;-71
2023/02/03 08:19:06;;;;;;;5.00;3.72;;;;;;;3.67;65.08;100525.72;6304035;28;20484;-77
2023/02/03 08:22:07;;;;;;;4.30;2.33;;;;;;;3.76;66.15;100525.47;6304220;28;20073;-77
2023/02/03 08:25:08;;;;;;;3.92;2.13;;;;;;;3.95;66.49;100528.41;6303625;28;20040;-72
2023/02/03 08:28:09;;;;;;;3.35;2.20;;;;;;;3.98;66.24;100533.53;6322104;28;20101;-77
2023/02/03 08:31:11;;;;;;;3.10;2.17;;;;;;;3.95;66.14;100536.16;6303836;28;20036;-77
2023/02/03 08:34:12;;;;;;;1.60;1.30;;;;;;;3.94;67.76;100534.50;6322067;28;20044;-77
2023/02/03 08:37:16;;;;;;;2.60;1.15;;;;;;;3.84;68.15;100539.03;6322226;28;20040;-77
2023/02/03 08:40:17;;;;;;;2.72;1.83;;;;;;;3.76;67.48;100552.13;6321900;28;20436;-71
2023/02/03 08:43:18;;;;;;;1.80;1.27;;;;;;;3.43;68.31;100557.22;6321912;28;20040;-71
2023/02/03 08:46:21;;;;;;;1.90;0.98;;;;;;;3.60;68.21;100559.41;6321635;28;20040;-71
2023/02/03 08:49:24;;;;;;;1.08;0.73;;;;;;;3.68;67.49;100573.84;6303806;28;20044;-77
2023/02/03 08:52:24;;;;;;;;;;;;;;;3.65;68.60;100572.19;6321596;28;20036;-73
2023/02/03 08:55:25;;;;;;;3.70;1.15;;;;;;;3.47;69.07;100564.91;6303511;28;20331;-77
2023/02/03 08:58:26;;;;;;;1.08;0.93;;;;;;;3.43;71.22;100564.97;6321683;28;20047;-77
2023/02/03 09:01:27;;;;;;;2.75;1.52;;;;;;;3.56;72.25;100568.13;6321062;28;20174;-77
2023/02/03 09:04:28;;;;;;;3.00;1.40;;;;;;;3.62;72.80;100575.72;6303394;28;20412;-71
2023/02/03 09:07:29;;;;;;;2.95;2.17;;;;;;;3.60;73.48;100572.31;6303232;28;20036;-77
2023/02/03 09:10:30;;;;;;;2.83;1.25;;;;;;;3.62;72.66;100586.03;6321230;28;20047;-77
2023/02/03 09:13:33;;;;;;;1.65;1.40;;;;;;;3.77;71.83;100577.06;6303301;28;20040;-77
2023/02/03 09:16:33;;;;;;;1.33;0.90;;;;;;;3.92;71.36;100564.66;6321112;28;20044;-71
2023/02/03 09:19:34;;;;;;;2.53;1.73;;;;;;;4.14;68.74;100570.97;6321147;28;20040;-71
2023/02/03 09:22:36;;;;;;;5.00;1.88;;;;;;;4.22;69.16;100576.78;6320991;28;20476;-77
2023/02/03 09:25:39;;;;;;;2.22;1.30;;;;;;;4.19;68.90;100573.44;6321201;28;20048;-77
2023/02/03 09:28:41;;;;;;;7.38;2.03;;;;;;;4.02;69.18;100566.97;6320990;28;20032;-72
2023/02/03 09:31:42;;;;;;;3.50;2.00;;;;;;;3.97;71.34;100566.22;6302610;28;20124;-72
2023/02/03 09:34:44;;;;;;;1.80;1.38;;;;;;;3.86;74.78;100565.66;6303204;28;20048;-77
2023/02/03 09:37:45;;;;;;;10.90;3.83;;;;;;;3.86;73.77;100567.41;6321014;28;20249;-77
2023/02/03 09:40:55;;;;;;;4.43;3.30;;;;;;;3.98;74.25;100559.34;6320562;28;20066;-71
2023/02/03 09:44:01;;;;;;;5.50;2.42;;;;;;;3.92;73.58;100559.50;6320552;28;20102;-71
2023/02/03 09:47:14;;;;;;;2.05;1.35;;;;;;;3.79;72.59;100552.06;6320952;28;20040;-77
2023/02/03 09:50:25;;;;;;;1.63;1.30;;;;;;;4.00;72.23;100548.06;6302943;28;20043;-77
2023/02/03 09:53:29;;;;;;;3.70;1.55;;;;;;;3.93;71.39;100551.72;6320545;28;20408;-77
2023/02/03 09:56:33;;;;;;;0.60;0.60;;;;;;;4.04;70.93;100547.13;6302892;28;20048;-77
2023/02/03 09:59:34;;;;;;;1.48;0.85;;;;;;;3.99;71.91;100535.19;6301941;28;20439;-71
2023/02/03 10:03:03;;;;;;;0.90;0.75;;;;;;;4.45;72.35;100531.38;6302771;28;20055;-77
2023/02/03 10:06:22;;;;;;;1.80;1.48;;;;;;;4.69;71.24;100519.47;6323439;28;20060;-77
2023/02/03 10:09:41;;;;;;;1.15;0.63;;;;;;;4.76;69.95;100520.16;6325676;28;20047;-77
2023/02/03 10:13:41;;;;;;;0.60;0.60;;;;;;;4.44;70.66;100511.59;6307052;28;20115;-71
2023/02/03 10:16:47;;;;;;;1.33;1.20;;;;;;;4.72;70.04;100495.31;6198178;28;20054;-77
2023/02/03 10:19:53;;;;;;;1.70;1.38;;;;;;;4.77;67.87;100490.81;6211112;28;20067;-71
2023/02/03 10:22:59;;;;;;;1.00;0.77;;;;;;;4.69;67.41;100480.69;6325111;28;20072;-71
2023/02/03 10:26:08;;;;;;;1.65;1.20;;;;;;;4.74;67.52;100483.19;6325170;28;20036;-71
2023/02/03 10:29:27;;;;;;;2.85;2.55;;;;;;;4.81;63.65;100467.41;6324817;28;20078;-77
2023/02/03 10:32:29;;;;;;;3.28;2.35;;;;;;;4.78;62.44;100469.25;6306903;28;20090;-77
2023/02/03 10:35:48;;;;;;;2.30;1.85;;;;;;;5.11;62.70;100469.94;6324838;28;20070;-77
2023/02/03 10:38:57;;;;;;;2.85;0.90;;;;;;;5.10;61.14;100457.91;6324867;28;20507;-77
2023/02/03 10:42:00;;;;;;;4.03;1.55;;;;;;;4.84;61.82;100451.81;6306507;28;20051;-71
2023/02/03 10:45:03;;;;;;;1.20;0.93;;;;;;;4.77;62.51;100452.88;6324616;28;20078;-71
2023/02/03 10:48:08;;;;;;;1.05;0.95;;;;;;;4.94;62.67;100447.22;6325018;28;20044;-77
2023/02/03 10:51:25;;;;;;;1.70;1.08;;;;;;;4.98;62.81;100438.47;6324868;28;20036;-78
2023/02/03 10:54:28;;;;;;;4.07;1.35;;;;;;;4.86;62.11;100436.25;6306085;28;20079;-74
2023/02/03 10:57:34;;;;;;;1.50;1.27;;;;;;;5.16;63.04;100437.00;6306108;28;20044;-72
2023/02/03 11:00:35;;;;;;;1.30;1.00;;;;;;;5.28;63.13;100433.19;6324270;28;20117;-71
2023/02/03 11:03:39;;;;;;;15.80;1.30;;;;;;;5.40;61.44;100431.94;6306429;28;20480;-71
2023/02/03 11:06:54;;;;;;;3.88;1.48;;;;;;;5.19;65.72;100431.75;6324189;28;20404;-71
2023/02/03 11:09:55;;;;;;;1.65;1.20;;;;;;;5.18;66.64;100432.63;6305665;28;20040;-72
2023/02/03 11:13:24;;;;;;;2.35;1.48;;;;;;;5.39;65.92;100428.47;6323648;28;20519;-73
2023/02/03 11:16:25;;;;;;;2.15;1.67;;;;;;;5.18;64.93;100413.69;6305300;28;20047;-72
2023/02/03 11:19:26;;;;;;;2.08;1.55;;;;;;;5.10;64.14;100418.25;6305610;28;20067;-72
2023/02/03 11:22:35;;;;;;;3.30;1.58;;;;;;;5.00;64.31;100416.00;6305629;28;20047;-72
2023/02/03 11:25:36;;;;;;;0.88;0.68;;;;;;;4.64;64.12;100397.31;6304004;28;20040;-71
2023/02/03 11:28:42;;;;;;;2.53;1.55;;;;;;;4.76;64.61;100399.50;6305315;28;20071;-71
2023/02/03 11:31:48;;;;;;;1.60;1.17;;;;;;;4.70;67.17;100397.09;6322036;28;20107;-78
2023/02/03 11:35:02;;;;;;;1.10;0.82;;;;;;;4.76;68.09;100384.00;6305444;28;20503;-77
2023/02/03 11:38:30;;;;;;;1.77;1.20;;;;;;;4.57;67.84;100375.97;6305677;28;20075;-71
2023/02/03 11:41:36;;;;;;;2.47;1.73;;;;;;;4.54;67.94;100365.72;6305093;28;20472;-77
2023/02/03 11:44:39;;;;;;;1.55;1.20;;;;;;;4.46;66.84;100357.34;6305056;28;20043;-77
2023/02/03 11:47:50;;;;;;;1.98;1.35;;;;;;;4.20;68.37;100352.97;6304758;28;20545;-78
2023/02/03 11:51:14;;;;;;;1.50;1.20;;;;;;;4.23;69.18;100350.31;6304804;28;20141;-71
2023/02/03 11:54:40;;;;;;;2.05;0.93;;;;;;;4.01;68.88;100342.34;6296674;28;20048;-78
2023/02/03 11:58:00;;;;;;;4.35;1.85;;;;;;;4.12;68.70;100337.72;6279986;28;20040;-78
2023/02/03 12:01:10;;;;;;;2.13;1.30;;;;;;;4.06;68.44;100329.28;6297488;28;20041;-72
2023/02/03 12:04:23;;;;;;;1.15;0.57;;;;;;;4.06;67.41;100330.16;6279796;28;20047;-77
2023/02/03 12:07:36;;;;;;;2.28;0.75;;;;;;;4.11;67.35;100322.28;6279496;28;20040;-77
2023/02/03 12:10:42;;;;;;;4.30;1.67;;;;;;;4.14;68.94;100317.00;6279577;28;20059;-73
2023/02/03 12:13:51;;;;;;;3.05;1.75;;;;;;;3.97;68.60;100297.69;6297101;28;20072;-77
2023/02/03 12:17:32;;;;;;;2.45;1.83;;;;;;;4.03;69.73;100283.75;6297080;28;20040;-71
2023/02/03 12:21:02;;;;;;;0.73;0.73;;;;;;;4.00;69.02;100292.44;6297491;28;20460;-77
2023/02/03 12:24:12;;;;;;;0.98;0.80;;;;;;;4.10;67.95;100277.53;6279339;28;20511;-78
2023/02/03 12:27:33;;;;;;;4.00;1.00;;;;;;;3.81;65.05;100274.09;6278618;28;20044;-77
2023/02/03 12:30:45;;;;;;;1.02;0.93;;;;;;;3.75;64.50;100283.75;6296966;28;20068;-78
2023/02/03 12:33:55;;;;;;;1.02;0.70;;;;;;;3.86;64.05;100276.53;6278667;28;20052;-77
2023/02/03 12:37:11;;;;;;;1.80;0.88;;;;;;;3.88;64.11;100263.56;6296610;28;20048;-71
2023/02/03 12:40:28;;;;;;;0.60;0.60;;;;;;;3.86;65.33;100260.19;6278735;28;20040;-77
2023/02/03 12:43:48;;;;;;;1.38;1.08;;;;;;;3.86;65.71;100263.63;6278762;28;20040;-71
2023/02/03 12:47:03;;;;;;;2.63;1.02;;;;;;;3.74;64.31;100246.75;6295107;28;20036;-71
2023/02/03 12:50:16;;;;;;;3.30;1.05;;;;;;;3.88;64.24;100230.03;6278509;28;20115;-71
2023/02/03 12:53:26;;;;;;;0.80;0.77;;;;;;;3.75;64.26;100237.28;6278428;28;20075;-71
2023/02/03 12:56:39;;;;;;;1.63;0.93;;;;;;;3.76;64.71;100224.31;6320611;28;20504;-72
2023/02/03 12:59:42;;;;;;;0.50;0.50;;;;;;;3.62;65.23;100219.59;6303416;28;20047;-77
2023/02/03 13:03:33;;;;;;;0.50;0.50;;;;;;;3.74;65.52;100220.09;6321067;28;20032;-77
2023/02/03 13:07:10;;;;;;;0.50;0.50;;;;;;;3.45;63.82;100215.81;6314218;28;20101;-71
2023/02/03 13:10:42;;;;;;;0.65;0.65;;;;;;;3.25;66.59;100214.63;6321080;28;20040;-71
2023/02/03 13:13:50;;;;;;;1.55;0.63;;;;;;;3.12;66.55;100190.09;6302967;28;20032;-77
2023/02/03 13:17:00;;;;;;;1.00;0.90;;;;;;;3.11;68.01;100190.97;6303077;28;20089;-71
2023/02/03 13:20:16;;;;;;;1.25;0.95;;;;;;;2.77;67.50;100192.75;6320769;28;20408;-77
2023/02/03 13:23:17;;;;;;;0.60;0.60;;;;;;;2.72;68.61;100188.59;6302946;28;20525;-71
2023/02/03 13:26:36;;;;;;;0.77;0.60;;;;;;;2.64;68.00;100181.09;6302519;28;20042;-71
2023/02/03 13:29:37;;;;;;;0.50;0.50;;;;;;;2.63;68.93;100176.81;6320799;28;20047;-78
2023/02/03 13:32:57;;;;;;;0.32;0.32;;;;;;;2.61;68.96;100166.56;6320586;28;20044;-71
2023/02/03 13:36:25;;;;;;;0.55;0.35;;;;;;;2.55;69.94;100164.16;6302619;28;20467;-77
2023/02/03 13:39:38;;;;;;;0.50;0.45;;;;;;;2.48;70.53;100159.19;6304347;28;20098;-78
2023/02/03 13:42:50;;;;;;;0.40;0.40;;;;;;;2.41;70.61;100156.75;6325599;28;20047;-77
2023/02/03 13:45:51;;;;;;;0.28;0.25;;;;;;;2.46;70.13;100145.50;6325906;28;20044;-71
2023/02/03 13:48:54;;;;;;;0.38;0.32;;;;;;;2.34;69.15;100136.34;6325604;28;20055;-71
2023/02/03 13:51:57;;;;;;;0.50;0.50;;;;;;;2.34;70.26;100129.47;6325733;28;20044;-71
2023/02/03 13:55:00;;;;;;;0.40;0.25;;;;;;;2.32;69.24;100127.81;6325427;28;20082;-77
2023/02/03 13:58:03;;;;;;;1.23;0.52;;;;;;;2.48;69.60;100108.50;6324384;28;20040;-71
2023/02/03 14:01:25;;;;;;;0.13;0.13;;;;;;;2.31;69.39;100108.13;6307370;28;20040;-77
2023/02/03 14:04:26;;;;;;;0.30;0.30;;;;;;;2.31;71.56;100103.81;6307613;28;20040;-71
2023/02/03 14:07:35;;;;;;;1.50;0.60;;;;;;;2.35;72.75;100094.28;6325343;28;20442;-77
2023/02/03 14:10:36;;;;;;;4.10;0.90;;;;;;;2.30;72.84;100080.66;6325278;28;20545;-71
2023/02/03 14:13:36;;;;;;;0.45;0.45;;;;;;;2.18;71.73;100067.25;6325222;28;20039;-71
2023/02/03 14:16:48;;;;;;;1.95;1.27;;;;;;;2.31;73.03;100074.66;6325180;28;20089;-77
2023/02/03 14:19:49;;;;;;;2.00;1.30;;;;;;;2.21;76.30;100056.03;6325640;28;20036;-78
2023/02/03 14:23:13;;;;;;;3.83;1.38;;;;;;;2.14;78.26;100054.47;6324839;28;20330;-71
2023/02/03 14:26:19;;;;;;;1.77;1.48;;;;;;;2.09;82.78;100040.91;6306528;28;20193;-71
2023/02/03 14:29:28;;;;;;;4.00;1.80;;;;;;;2.06;84.71;100040.97;6324837;28;20075;-71
2023/02/03 14:32:48;;;;;;;1.45;1.13;;;;;;;2.01;86.24;100033.38;6306503;28;20048;-71
2023/02/03 14:35:49;;;;;;;2.47;1.90;;;;;;;1.83;87.54;100016.66;6306519;28;20044;-71